sensor_id;sensor_type;location;lat;lon;timestamp;P1;durP1;ratioP1;P2;durP2;ratioP2
62459;SDS011;48510;39.364;-9.378;2022-07-06T00:00:47;26.08;;;7.18;;
62459;SDS011;48510;39.364;-9.378;2022-07-06T00:02:48;36.45;;;7.78;;
62459;SDS011;48510;39.364;-9.378;2022-07-06T00:04:49;18.48;;;5.75;;
62459;SDS011;48510;39.364;-9.378;2022-07-06T00:06:50;18.77;;;6.13;;
62459;SDS011;48510;39.364;-9.378;2022-07-06T00:08:51;22.17;;;6.35;;
62459;SDS011;48510;39.364;-9.378;2022-07-06T00:10:52;22.75;;;6.38;;
62459;SDS011;48510;39.364;-9.378;2022-07-06T00:12:52;17.55;;;6.30;;
62459;SDS011;48510;39.364;-9.378;2022-07-06T00:14:53;22.42;;;6.80;;
62459;SDS011;48510;39.364;-9.378;2022-07-06T00:16:54;19.33;;;6.85;;
62459;SDS011;48510;39.364;-9.378;2022-07-06T00:18:55;21.42;;;6.53;;
62459;SDS011;48510;39.364;-9.378;2022-07-06T00:20:56;20.33;;;6.70;;
62459;SDS011;48510;39.364;-9.378;2022-07-06T00:22:57;22.45;;;6.57;;
62459;SDS011;48510;39.364;-9.378;2022-07-06T00:24:58;21.38;;;6.50;;
62459;SDS011;48510;39.364;-9.378;2022-07-06T00:26:59;26.40;;;6.85;;
62459;SDS011;48510;39.364;-9.378;2022-07-06T00:28:59;18.00;;;6.25;;
62459;SDS011;48510;39.364;-9.378;2022-07-06T00:31:00;20.15;;;6.07;;
62459;SDS011;48510;39.364;-9.378;2022-07-06T00:33:01;21.20;;;6.43;;
62459;SDS011;48510;39.364;-9.378;2022-07-06T00:35:03;22.50;;;6.50;;
62459;SDS011;48510;39.364;-9.378;2022-07-06T00:37:05;19.73;;;6.43;;
62459;SDS011;48510;39.364;-9.378;2022-07-06T00:39:06;19.60;;;6.00;;
62459;SDS011;48510;39.364;-9.378;2022-07-06T00:41:07;19.35;;;6.78;;
62459;SDS011;48510;39.364;-9.378;2022-07-06T00:43:08;25.02;;;7.03;;
62459;SDS011;48510;39.364;-9.378;2022-07-06T00:45:09;20.80;;;6.65;;
62459;SDS011;48510;39.364;-9.378;2022-07-06T00:47:11;27.65;;;7.88;;
62459;SDS011;48510;39.364;-9.378;2022-07-06T00:49:12;20.20;;;6.75;;
62459;SDS011;48510;39.364;-9.378;2022-07-06T00:51:34;21.48;;;7.15;;
62459;SDS011;48510;39.364;-9.378;2022-07-06T00:53:36;18.60;;;6.07;;
62459;SDS011;48510;39.364;-9.378;2022-07-06T00:55:38;19.77;;;7.07;;
62459;SDS011;48510;39.364;-9.378;2022-07-06T00:57:40;26.15;;;7.82;;
62459;SDS011;48510;39.364;-9.378;2022-07-06T00:59:42;22.73;;;7.80;;
62459;SDS011;48510;39.364;-9.378;2022-07-06T01:01:43;19.50;;;7.38;;
62459;SDS011;48510;39.364;-9.378;2022-07-06T01:03:43;20.80;;;7.10;;
62459;SDS011;48510;39.364;-9.378;2022-07-06T01:05:44;19.60;;;7.05;;
62459;SDS011;48510;39.364;-9.378;2022-07-06T01:07:46;26.08;;;8.02;;
62459;SDS011;48510;39.364;-9.378;2022-07-06T01:09:47;21.70;;;7.45;;
62459;SDS011;48510;39.364;-9.378;2022-07-06T01:11:49;25.80;;;8.02;;
62459;SDS011;48510;39.364;-9.378;2022-07-06T01:13:50;26.15;;;8.23;;
62459;SDS011;48510;39.364;-9.378;2022-07-06T01:15:52;30.17;;;9.55;;
62459;SDS011;48510;39.364;-9.378;2022-07-06T01:17:53;32.10;;;10.48;;
62459;SDS011;48510;39.364;-9.378;2022-07-06T01:22:16;31.15;;;9.23;;
62459;SDS011;48510;39.364;-9.378;2022-07-06T01:24:17;24.52;;;8.93;;
62459;SDS011;48510;39.364;-9.378;2022-07-06T01:26:19;22.90;;;8.68;;
62459;SDS011;48510;39.364;-9.378;2022-07-06T01:28:21;28.10;;;10.52;;
62459;SDS011;48510;39.364;-9.378;2022-07-06T01:30:22;32.58;;;11.88;;
62459;SDS011;48510;39.364;-9.378;2022-07-06T01:32:23;29.98;;;10.90;;
62459;SDS011;48510;39.364;-9.378;2022-07-06T01:34:23;24.38;;;10.60;;
62459;SDS011;48510;39.364;-9.378;2022-07-06T01:36:24;30.83;;;11.13;;
62459;SDS011;48510;39.364;-9.378;2022-07-06T01:38:25;26.77;;;9.40;;
62459;SDS011;48510;39.364;-9.378;2022-07-06T01:40:25;29.63;;;10.70;;
62459;SDS011;48510;39.364;-9.378;2022-07-06T01:42:26;24.77;;;9.18;;
62459;SDS011;48510;39.364;-9.378;2022-07-06T01:44:28;34.28;;;9.85;;
62459;SDS011;48510;39.364;-9.378;2022-07-06T01:46:28;35.08;;;10.10;;
62459;SDS011;48510;39.364;-9.378;2022-07-06T01:48:29;34.50;;;10.38;;
62459;SDS011;48510;39.364;-9.378;2022-07-06T01:50:30;34.20;;;9.60;;
62459;SDS011;48510;39.364;-9.378;2022-07-06T01:52:31;39.50;;;11.00;;
62459;SDS011;48510;39.364;-9.378;2022-07-06T01:54:32;26.40;;;8.85;;
62459;SDS011;48510;39.364;-9.378;2022-07-06T01:56:33;22.02;;;9.18;;
62459;SDS011;48510;39.364;-9.378;2022-07-06T01:58:38;31.30;;;9.93;;
62459;SDS011;48510;39.364;-9.378;2022-07-06T02:00:39;23.75;;;8.88;;
62459;SDS011;48510;39.364;-9.378;2022-07-06T02:02:41;28.73;;;8.75;;
62459;SDS011;48510;39.364;-9.378;2022-07-06T02:04:45;26.98;;;9.55;;
62459;SDS011;48510;39.364;-9.378;2022-07-06T02:06:46;27.88;;;9.93;;
62459;SDS011;48510;39.364;-9.378;2022-07-06T02:08:46;24.52;;;8.55;;
62459;SDS011;48510;39.364;-9.378;2022-07-06T02:10:47;26.23;;;9.98;;
62459;SDS011;48510;39.364;-9.378;2022-07-06T02:12:48;27.23;;;10.38;;
62459;SDS011;48510;39.364;-9.378;2022-07-06T02:14:50;37.40;;;10.80;;
62459;SDS011;48510;39.364;-9.378;2022-07-06T02:16:51;36.40;;;10.18;;
62459;SDS011;48510;39.364;-9.378;2022-07-06T02:18:52;34.95;;;9.73;;
62459;SDS011;48510;39.364;-9.378;2022-07-06T02:20:53;32.45;;;9.95;;
62459;SDS011;48510;39.364;-9.378;2022-07-06T02:22:54;34.83;;;10.60;;
62459;SDS011;48510;39.364;-9.378;2022-07-06T02:24:54;31.10;;;9.55;;
62459;SDS011;48510;39.364;-9.378;2022-07-06T02:26:56;26.58;;;8.27;;
62459;SDS011;48510;39.364;-9.378;2022-07-06T02:28:57;26.27;;;8.02;;
62459;SDS011;48510;39.364;-9.378;2022-07-06T02:30:58;30.63;;;9.05;;
62459;SDS011;48510;39.364;-9.378;2022-07-06T02:33:00;40.80;;;9.48;;
62459;SDS011;48510;39.364;-9.378;2022-07-06T02:35:01;24.48;;;8.25;;
62459;SDS011;48510;39.364;-9.378;2022-07-06T02:37:02;23.45;;;8.27;;
62459;SDS011;48510;39.364;-9.378;2022-07-06T02:39:03;19.27;;;7.55;;
62459;SDS011;48510;39.364;-9.378;2022-07-06T02:41:04;20.35;;;7.43;;
62459;SDS011;48510;39.364;-9.378;2022-07-06T02:43:05;26.13;;;7.93;;
62459;SDS011;48510;39.364;-9.378;2022-07-06T02:45:06;24.98;;;8.05;;
62459;SDS011;48510;39.364;-9.378;2022-07-06T02:47:08;28.40;;;7.90;;
62459;SDS011;48510;39.364;-9.378;2022-07-06T02:49:09;21.63;;;7.10;;
62459;SDS011;48510;39.364;-9.378;2022-07-06T02:51:10;28.95;;;8.50;;
62459;SDS011;48510;39.364;-9.378;2022-07-06T02:53:11;25.02;;;8.55;;
62459;SDS011;48510;39.364;-9.378;2022-07-06T02:55:12;31.40;;;9.20;;
62459;SDS011;48510;39.364;-9.378;2022-07-06T02:57:14;30.02;;;8.93;;
62459;SDS011;48510;39.364;-9.378;2022-07-06T02:59:15;32.25;;;8.90;;
62459;SDS011;48510;39.364;-9.378;2022-07-06T03:01:17;31.55;;;9.00;;
62459;SDS011;48510;39.364;-9.378;2022-07-06T03:03:18;28.65;;;9.57;;
62459;SDS011;48510;39.364;-9.378;2022-07-06T03:05:18;30.42;;;9.88;;
62459;SDS011;48510;39.364;-9.378;2022-07-06T03:07:19;31.33;;;10.10;;
62459;SDS011;48510;39.364;-9.378;2022-07-06T03:09:21;28.60;;;9.45;;
62459;SDS011;48510;39.364;-9.378;2022-07-06T03:11:22;29.83;;;10.52;;
62459;SDS011;48510;39.364;-9.378;2022-07-06T03:13:22;34.17;;;11.85;;
62459;SDS011;48510;39.364;-9.378;2022-07-06T03:15:24;24.63;;;10.98;;
62459;SDS011;48510;39.364;-9.378;2022-07-06T03:17:26;26.85;;;11.45;;
62459;SDS011;48510;39.364;-9.378;2022-07-06T03:19:28;33.63;;;11.65;;
62459;SDS011;48510;39.364;-9.378;2022-07-06T03:21:29;32.40;;;12.50;;
62459;SDS011;48510;39.364;-9.378;2022-07-06T03:23:30;36.90;;;12.68;;
62459;SDS011;48510;39.364;-9.378;2022-07-06T03:25:31;32.75;;;12.57;;
62459;SDS011;48510;39.364;-9.378;2022-07-06T03:27:33;33.13;;;11.15;;
62459;SDS011;48510;39.364;-9.378;2022-07-06T03:29:36;28.30;;;13.25;;
62459;SDS011;48510;39.364;-9.378;2022-07-06T03:31:38;37.85;;;11.57;;
62459;SDS011;48510;39.364;-9.378;2022-07-06T03:33:39;29.20;;;10.48;;
62459;SDS011;48510;39.364;-9.378;2022-07-06T03:35:40;36.90;;;11.80;;
62459;SDS011;48510;39.364;-9.378;2022-07-06T03:37:42;33.03;;;11.43;;
62459;SDS011;48510;39.364;-9.378;2022-07-06T03:39:43;36.65;;;11.88;;
62459;SDS011;48510;39.364;-9.378;2022-07-06T03:41:45;34.15;;;11.30;;
62459;SDS011;48510;39.364;-9.378;2022-07-06T03:43:47;30.75;;;11.32;;
62459;SDS011;48510;39.364;-9.378;2022-07-06T03:45:48;34.20;;;10.15;;
62459;SDS011;48510;39.364;-9.378;2022-07-06T03:47:49;34.05;;;11.18;;
62459;SDS011;48510;39.364;-9.378;2022-07-06T03:49:50;33.58;;;10.50;;
62459;SDS011;48510;39.364;-9.378;2022-07-06T03:51:51;34.22;;;10.00;;
62459;SDS011;48510;39.364;-9.378;2022-07-06T03:53:51;36.28;;;10.38;;
62459;SDS011;48510;39.364;-9.378;2022-07-06T03:55:53;39.00;;;11.10;;
62459;SDS011;48510;39.364;-9.378;2022-07-06T03:58:13;37.30;;;11.27;;
62459;SDS011;48510;39.364;-9.378;2022-07-06T04:00:15;31.65;;;10.43;;
62459;SDS011;48510;39.364;-9.378;2022-07-06T04:02:18;33.35;;;10.48;;
62459;SDS011;48510;39.364;-9.378;2022-07-06T04:04:18;37.30;;;10.88;;
62459;SDS011;48510;39.364;-9.378;2022-07-06T04:06:21;31.00;;;9.98;;
62459;SDS011;48510;39.364;-9.378;2022-07-06T04:08:23;38.13;;;10.30;;
62459;SDS011;48510;39.364;-9.378;2022-07-06T04:10:29;30.75;;;10.38;;
62459;SDS011;48510;39.364;-9.378;2022-07-06T04:12:31;36.63;;;10.63;;
62459;SDS011;48510;39.364;-9.378;2022-07-06T04:14:33;32.75;;;9.95;;
62459;SDS011;48510;39.364;-9.378;2022-07-06T04:16:36;30.83;;;10.95;;
62459;SDS011;48510;39.364;-9.378;2022-07-06T04:18:37;34.65;;;11.00;;
62459;SDS011;48510;39.364;-9.378;2022-07-06T04:20:40;28.70;;;10.43;;
62459;SDS011;48510;39.364;-9.378;2022-07-06T04:22:41;31.75;;;11.20;;
62459;SDS011;48510;39.364;-9.378;2022-07-06T04:24:42;31.65;;;11.50;;
62459;SDS011;48510;39.364;-9.378;2022-07-06T04:26:42;40.78;;;11.10;;
62459;SDS011;48510;39.364;-9.378;2022-07-06T04:28:44;30.27;;;10.60;;
62459;SDS011;48510;39.364;-9.378;2022-07-06T04:30:44;33.08;;;10.93;;
62459;SDS011;48510;39.364;-9.378;2022-07-06T04:32:50;31.10;;;11.25;;
62459;SDS011;48510;39.364;-9.378;2022-07-06T04:34:51;32.20;;;10.75;;
62459;SDS011;48510;39.364;-9.378;2022-07-06T04:36:52;32.15;;;11.10;;
62459;SDS011;48510;39.364;-9.378;2022-07-06T04:38:52;34.70;;;11.20;;
62459;SDS011;48510;39.364;-9.378;2022-07-06T04:40:53;32.83;;;11.52;;
62459;SDS011;48510;39.364;-9.378;2022-07-06T04:42:55;31.75;;;10.63;;
62459;SDS011;48510;39.364;-9.378;2022-07-06T04:44:57;35.95;;;11.77;;
62459;SDS011;48510;39.364;-9.378;2022-07-06T04:46:58;35.25;;;10.93;;
62459;SDS011;48510;39.364;-9.378;2022-07-06T04:48:59;34.65;;;11.30;;
62459;SDS011;48510;39.364;-9.378;2022-07-06T04:51:03;34.90;;;11.40;;
62459;SDS011;48510;39.364;-9.378;2022-07-06T04:53:04;34.85;;;10.38;;
62459;SDS011;48510;39.364;-9.378;2022-07-06T04:55:07;34.30;;;11.55;;
62459;SDS011;48510;39.364;-9.378;2022-07-06T04:57:09;32.92;;;10.95;;
62459;SDS011;48510;39.364;-9.378;2022-07-06T04:59:10;36.67;;;11.80;;
62459;SDS011;48510;39.364;-9.378;2022-07-06T05:01:11;42.78;;;12.45;;
62459;SDS011;48510;39.364;-9.378;2022-07-06T05:03:12;34.80;;;11.98;;
62459;SDS011;48510;39.364;-9.378;2022-07-06T05:05:12;40.97;;;12.32;;
62459;SDS011;48510;39.364;-9.378;2022-07-06T05:07:13;41.13;;;12.15;;
62459;SDS011;48510;39.364;-9.378;2022-07-06T05:09:14;42.00;;;12.43;;
62459;SDS011;48510;39.364;-9.378;2022-07-06T05:11:16;32.33;;;10.93;;
62459;SDS011;48510;39.364;-9.378;2022-07-06T05:13:18;35.17;;;11.30;;
62459;SDS011;48510;39.364;-9.378;2022-07-06T05:15:19;36.30;;;11.45;;
62459;SDS011;48510;39.364;-9.378;2022-07-06T05:17:20;37.67;;;11.18;;
62459;SDS011;48510;39.364;-9.378;2022-07-06T05:19:20;39.42;;;11.85;;
62459;SDS011;48510;39.364;-9.378;2022-07-06T05:21:22;36.95;;;11.88;;
62459;SDS011;48510;39.364;-9.378;2022-07-06T05:23:23;35.92;;;11.30;;
62459;SDS011;48510;39.364;-9.378;2022-07-06T05:25:24;39.05;;;12.18;;
62459;SDS011;48510;39.364;-9.378;2022-07-06T05:27:25;41.80;;;11.98;;
62459;SDS011;48510;39.364;-9.378;2022-07-06T05:29:27;40.33;;;12.45;;
62459;SDS011;48510;39.364;-9.378;2022-07-06T05:31:28;44.58;;;12.48;;
62459;SDS011;48510;39.364;-9.378;2022-07-06T05:33:30;31.27;;;11.18;;
62459;SDS011;48510;39.364;-9.378;2022-07-06T05:35:30;34.78;;;10.85;;
62459;SDS011;48510;39.364;-9.378;2022-07-06T05:37:32;39.33;;;12.05;;
62459;SDS011;48510;39.364;-9.378;2022-07-06T05:39:33;34.70;;;11.32;;
62459;SDS011;48510;39.364;-9.378;2022-07-06T05:41:35;38.70;;;10.93;;
62459;SDS011;48510;39.364;-9.378;2022-07-06T05:43:36;33.45;;;10.55;;
62459;SDS011;48510;39.364;-9.378;2022-07-06T05:45:37;40.70;;;12.18;;
62459;SDS011;48510;39.364;-9.378;2022-07-06T05:47:39;34.58;;;11.60;;
62459;SDS011;48510;39.364;-9.378;2022-07-06T05:49:58;38.33;;;11.60;;
62459;SDS011;48510;39.364;-9.378;2022-07-06T05:52:19;30.45;;;11.60;;
62459;SDS011;48510;39.364;-9.378;2022-07-06T05:54:19;35.03;;;11.48;;
62459;SDS011;48510;39.364;-9.378;2022-07-06T05:56:22;30.80;;;11.75;;
62459;SDS011;48510;39.364;-9.378;2022-07-06T05:58:23;34.83;;;12.20;;
62459;SDS011;48510;39.364;-9.378;2022-07-06T06:00:27;37.47;;;11.43;;
62459;SDS011;48510;39.364;-9.378;2022-07-06T06:02:39;32.58;;;11.10;;
62459;SDS011;48510;39.364;-9.378;2022-07-06T06:04:43;34.45;;;12.10;;
62459;SDS011;48510;39.364;-9.378;2022-07-06T06:06:44;40.42;;;11.73;;
62459;SDS011;48510;39.364;-9.378;2022-07-06T06:08:45;38.05;;;11.95;;
62459;SDS011;48510;39.364;-9.378;2022-07-06T06:10:46;39.00;;;11.32;;
62459;SDS011;48510;39.364;-9.378;2022-07-06T06:12:51;31.75;;;11.68;;
62459;SDS011;48510;39.364;-9.378;2022-07-06T06:14:52;33.83;;;11.20;;
62459;SDS011;48510;39.364;-9.378;2022-07-06T06:16:52;27.42;;;10.10;;
62459;SDS011;48510;39.364;-9.378;2022-07-06T06:18:53;32.00;;;10.90;;
62459;SDS011;48510;39.364;-9.378;2022-07-06T06:20:54;29.05;;;10.73;;
62459;SDS011;48510;39.364;-9.378;2022-07-06T06:22:55;30.75;;;12.02;;
62459;SDS011;48510;39.364;-9.378;2022-07-06T06:24:57;35.58;;;11.95;;
62459;SDS011;48510;39.364;-9.378;2022-07-06T06:26:57;32.95;;;11.43;;
62459;SDS011;48510;39.364;-9.378;2022-07-06T06:28:59;29.52;;;10.70;;
62459;SDS011;48510;39.364;-9.378;2022-07-06T06:31:00;26.02;;;10.50;;
62459;SDS011;48510;39.364;-9.378;2022-07-06T06:35:17;23.38;;;8.23;;
62459;SDS011;48510;39.364;-9.378;2022-07-06T06:37:17;27.73;;;10.43;;
62459;SDS011;48510;39.364;-9.378;2022-07-06T06:39:18;24.05;;;8.38;;
62459;SDS011;48510;39.364;-9.378;2022-07-06T06:41:19;22.80;;;7.90;;
62459;SDS011;48510;39.364;-9.378;2022-07-06T06:43:21;23.35;;;8.52;;
62459;SDS011;48510;39.364;-9.378;2022-07-06T06:45:44;19.67;;;8.77;;
62459;SDS011;48510;39.364;-9.378;2022-07-06T06:47:46;18.52;;;8.02;;
62459;SDS011;48510;39.364;-9.378;2022-07-06T06:49:47;17.45;;;7.25;;
62459;SDS011;48510;39.364;-9.378;2022-07-06T06:51:48;21.17;;;8.27;;
62459;SDS011;48510;39.364;-9.378;2022-07-06T06:53:48;26.70;;;9.20;;
62459;SDS011;48510;39.364;-9.378;2022-07-06T06:55:49;18.08;;;7.75;;
62459;SDS011;48510;39.364;-9.378;2022-07-06T06:57:50;22.05;;;8.30;;
62459;SDS011;48510;39.364;-9.378;2022-07-06T06:59:51;18.38;;;7.63;;
62459;SDS011;48510;39.364;-9.378;2022-07-06T07:01:51;23.88;;;8.00;;
62459;SDS011;48510;39.364;-9.378;2022-07-06T07:03:52;23.23;;;8.70;;
62459;SDS011;48510;39.364;-9.378;2022-07-06T07:05:54;22.10;;;8.38;;
62459;SDS011;48510;39.364;-9.378;2022-07-06T07:07:54;22.02;;;8.70;;
62459;SDS011;48510;39.364;-9.378;2022-07-06T07:09:59;29.23;;;9.00;;
62459;SDS011;48510;39.364;-9.378;2022-07-06T07:12:00;27.42;;;8.98;;
62459;SDS011;48510;39.364;-9.378;2022-07-06T07:14:01;20.98;;;8.05;;
62459;SDS011;48510;39.364;-9.378;2022-07-06T07:16:02;21.35;;;7.95;;
62459;SDS011;48510;39.364;-9.378;2022-07-06T07:18:03;21.02;;;8.07;;
62459;SDS011;48510;39.364;-9.378;2022-07-06T07:20:04;28.55;;;8.60;;
62459;SDS011;48510;39.364;-9.378;2022-07-06T07:22:05;27.80;;;8.85;;
62459;SDS011;48510;39.364;-9.378;2022-07-06T07:24:06;26.52;;;8.85;;
62459;SDS011;48510;39.364;-9.378;2022-07-06T07:26:07;23.50;;;9.15;;
62459;SDS011;48510;39.364;-9.378;2022-07-06T07:28:08;24.63;;;8.70;;
62459;SDS011;48510;39.364;-9.378;2022-07-06T07:30:09;25.48;;;9.02;;
62459;SDS011;48510;39.364;-9.378;2022-07-06T07:32:10;24.85;;;8.38;;
62459;SDS011;48510;39.364;-9.378;2022-07-06T07:34:11;28.23;;;9.10;;
62459;SDS011;48510;39.364;-9.378;2022-07-06T07:36:12;21.52;;;8.40;;
62459;SDS011;48510;39.364;-9.378;2022-07-06T07:38:12;25.13;;;8.25;;
62459;SDS011;48510;39.364;-9.378;2022-07-06T07:40:13;24.95;;;8.43;;
62459;SDS011;48510;39.364;-9.378;2022-07-06T07:42:14;25.67;;;9.38;;
62459;SDS011;48510;39.364;-9.378;2022-07-06T07:44:15;23.40;;;8.95;;
62459;SDS011;48510;39.364;-9.378;2022-07-06T07:46:16;21.30;;;7.85;;
62459;SDS011;48510;39.364;-9.378;2022-07-06T07:48:16;25.48;;;9.60;;
62459;SDS011;48510;39.364;-9.378;2022-07-06T07:50:17;26.40;;;9.68;;
62459;SDS011;48510;39.364;-9.378;2022-07-06T07:52:18;23.10;;;9.32;;
62459;SDS011;48510;39.364;-9.378;2022-07-06T07:54:19;28.30;;;9.82;;
62459;SDS011;48510;39.364;-9.378;2022-07-06T07:56:19;23.88;;;9.05;;
62459;SDS011;48510;39.364;-9.378;2022-07-06T07:58:20;29.75;;;9.82;;
62459;SDS011;48510;39.364;-9.378;2022-07-06T08:00:21;25.52;;;9.18;;
62459;SDS011;48510;39.364;-9.378;2022-07-06T08:02:24;22.83;;;9.10;;
62459;SDS011;48510;39.364;-9.378;2022-07-06T08:04:27;25.90;;;9.23;;
62459;SDS011;48510;39.364;-9.378;2022-07-06T08:06:28;18.52;;;8.48;;
62459;SDS011;48510;39.364;-9.378;2022-07-06T08:08:29;19.88;;;8.35;;
62459;SDS011;48510;39.364;-9.378;2022-07-06T08:10:30;24.98;;;9.07;;
62459;SDS011;48510;39.364;-9.378;2022-07-06T08:12:31;21.95;;;8.57;;
62459;SDS011;48510;39.364;-9.378;2022-07-06T08:14:31;27.52;;;9.23;;
62459;SDS011;48510;39.364;-9.378;2022-07-06T08:16:32;20.77;;;8.80;;
62459;SDS011;48510;39.364;-9.378;2022-07-06T08:18:33;25.88;;;9.77;;
62459;SDS011;48510;39.364;-9.378;2022-07-06T08:20:34;32.00;;;10.80;;
62459;SDS011;48510;39.364;-9.378;2022-07-06T08:22:36;24.10;;;9.38;;
62459;SDS011;48510;39.364;-9.378;2022-07-06T08:24:37;25.40;;;9.05;;
62459;SDS011;48510;39.364;-9.378;2022-07-06T08:26:38;26.63;;;9.80;;
62459;SDS011;48510;39.364;-9.378;2022-07-06T08:28:38;26.45;;;9.43;;
62459;SDS011;48510;39.364;-9.378;2022-07-06T08:30:39;21.85;;;8.93;;
62459;SDS011;48510;39.364;-9.378;2022-07-06T08:32:40;25.52;;;9.30;;
62459;SDS011;48510;39.364;-9.378;2022-07-06T08:34:42;26.65;;;9.48;;
62459;SDS011;48510;39.364;-9.378;2022-07-06T08:36:44;24.75;;;9.63;;
62459;SDS011;48510;39.364;-9.378;2022-07-06T08:38:46;25.02;;;8.43;;
62459;SDS011;48510;39.364;-9.378;2022-07-06T08:40:48;27.48;;;9.68;;
62459;SDS011;48510;39.364;-9.378;2022-07-06T08:42:53;25.17;;;9.05;;
62459;SDS011;48510;39.364;-9.378;2022-07-06T08:44:58;17.45;;;8.30;;
62459;SDS011;48510;39.364;-9.378;2022-07-06T08:47:00;23.88;;;9.10;;
62459;SDS011;48510;39.364;-9.378;2022-07-06T08:49:06;25.33;;;9.35;;
62459;SDS011;48510;39.364;-9.378;2022-07-06T08:51:08;25.42;;;8.95;;
62459;SDS011;48510;39.364;-9.378;2022-07-06T08:53:10;19.70;;;8.95;;
62459;SDS011;48510;39.364;-9.378;2022-07-06T08:55:11;26.55;;;8.63;;
62459;SDS011;48510;39.364;-9.378;2022-07-06T08:57:12;23.13;;;7.22;;
62459;SDS011;48510;39.364;-9.378;2022-07-06T08:59:13;22.48;;;8.30;;
62459;SDS011;48510;39.364;-9.378;2022-07-06T09:01:15;22.02;;;7.97;;
62459;SDS011;48510;39.364;-9.378;2022-07-06T09:03:17;22.27;;;7.82;;
62459;SDS011;48510;39.364;-9.378;2022-07-06T09:05:17;18.52;;;7.15;;
62459;SDS011;48510;39.364;-9.378;2022-07-06T09:07:21;28.47;;;8.23;;
62459;SDS011;48510;39.364;-9.378;2022-07-06T09:09:23;19.58;;;7.88;;
62459;SDS011;48510;39.364;-9.378;2022-07-06T09:11:24;18.35;;;7.60;;
62459;SDS011;48510;39.364;-9.378;2022-07-06T09:13:28;18.95;;;7.63;;
62459;SDS011;48510;39.364;-9.378;2022-07-06T09:15:29;22.45;;;8.38;;
62459;SDS011;48510;39.364;-9.378;2022-07-06T09:17:30;19.08;;;7.88;;
62459;SDS011;48510;39.364;-9.378;2022-07-06T09:19:33;17.02;;;7.53;;
62459;SDS011;48510;39.364;-9.378;2022-07-06T09:21:38;19.40;;;7.68;;
62459;SDS011;48510;39.364;-9.378;2022-07-06T09:23:39;22.63;;;7.75;;
62459;SDS011;48510;39.364;-9.378;2022-07-06T09:25:40;17.58;;;6.80;;
62459;SDS011;48510;39.364;-9.378;2022-07-06T09:27:41;21.17;;;8.15;;
62459;SDS011;48510;39.364;-9.378;2022-07-06T09:29:51;20.27;;;7.80;;
62459;SDS011;48510;39.364;-9.378;2022-07-06T09:31:56;18.95;;;7.43;;
62459;SDS011;48510;39.364;-9.378;2022-07-06T09:34:02;20.83;;;8.07;;
62459;SDS011;48510;39.364;-9.378;2022-07-06T09:36:08;23.00;;;7.55;;
62459;SDS011;48510;39.364;-9.378;2022-07-06T09:38:09;21.30;;;7.70;;
62459;SDS011;48510;39.364;-9.378;2022-07-06T09:40:18;22.45;;;7.88;;
62459;SDS011;48510;39.364;-9.378;2022-07-06T09:42:23;18.75;;;7.40;;
62459;SDS011;48510;39.364;-9.378;2022-07-06T09:47:49;17.95;;;6.85;;
62459;SDS011;48510;39.364;-9.378;2022-07-06T09:49:51;16.63;;;6.35;;
62459;SDS011;48510;39.364;-9.378;2022-07-06T09:51:59;20.73;;;6.78;;
62459;SDS011;48510;39.364;-9.378;2022-07-06T09:54:08;18.83;;;7.22;;
62459;SDS011;48510;39.364;-9.378;2022-07-06T09:56:09;15.45;;;7.03;;
62459;SDS011;48510;39.364;-9.378;2022-07-06T09:58:10;21.45;;;7.53;;
62459;SDS011;48510;39.364;-9.378;2022-07-06T10:00:10;22.20;;;8.10;;
62459;SDS011;48510;39.364;-9.378;2022-07-06T10:02:12;17.63;;;7.72;;
62459;SDS011;48510;39.364;-9.378;2022-07-06T10:04:14;23.58;;;7.75;;
62459;SDS011;48510;39.364;-9.378;2022-07-06T10:06:18;18.80;;;7.63;;
62459;SDS011;48510;39.364;-9.378;2022-07-06T10:08:19;18.52;;;7.70;;
62459;SDS011;48510;39.364;-9.378;2022-07-06T10:10:20;18.60;;;6.65;;
62459;SDS011;48510;39.364;-9.378;2022-07-06T10:12:24;13.82;;;6.75;;
62459;SDS011;48510;39.364;-9.378;2022-07-06T10:14:26;18.13;;;7.07;;
62459;SDS011;48510;39.364;-9.378;2022-07-06T10:16:31;16.63;;;6.85;;
62459;SDS011;48510;39.364;-9.378;2022-07-06T10:18:33;20.35;;;6.43;;
62459;SDS011;48510;39.364;-9.378;2022-07-06T10:20:35;19.58;;;6.80;;
62459;SDS011;48510;39.364;-9.378;2022-07-06T10:22:38;19.48;;;7.45;;
62459;SDS011;48510;39.364;-9.378;2022-07-06T10:24:40;14.82;;;6.25;;
62459;SDS011;48510;39.364;-9.378;2022-07-06T10:26:43;21.25;;;6.80;;
62459;SDS011;48510;39.364;-9.378;2022-07-06T10:28:46;17.10;;;6.60;;
62459;SDS011;48510;39.364;-9.378;2022-07-06T10:30:47;18.85;;;6.90;;
62459;SDS011;48510;39.364;-9.378;2022-07-06T10:32:50;19.45;;;6.72;;
62459;SDS011;48510;39.364;-9.378;2022-07-06T10:34:51;18.52;;;7.10;;
62459;SDS011;48510;39.364;-9.378;2022-07-06T10:36:52;20.10;;;6.88;;
62459;SDS011;48510;39.364;-9.378;2022-07-06T10:38:55;20.42;;;7.20;;
62459;SDS011;48510;39.364;-9.378;2022-07-06T10:41:01;20.83;;;7.10;;
62459;SDS011;48510;39.364;-9.378;2022-07-06T10:43:03;15.13;;;6.05;;
62459;SDS011;48510;39.364;-9.378;2022-07-06T10:45:04;20.52;;;6.70;;
62459;SDS011;48510;39.364;-9.378;2022-07-06T10:47:08;17.10;;;6.68;;
62459;SDS011;48510;39.364;-9.378;2022-07-06T10:49:15;21.73;;;6.75;;
62459;SDS011;48510;39.364;-9.378;2022-07-06T10:51:26;19.67;;;7.40;;
62459;SDS011;48510;39.364;-9.378;2022-07-06T10:53:35;20.42;;;7.03;;
62459;SDS011;48510;39.364;-9.378;2022-07-06T10:55:42;19.25;;;7.13;;
62459;SDS011;48510;39.364;-9.378;2022-07-06T10:57:52;21.17;;;6.35;;
62459;SDS011;48510;39.364;-9.378;2022-07-06T11:00:03;24.52;;;6.65;;
62459;SDS011;48510;39.364;-9.378;2022-07-06T11:02:12;21.13;;;6.60;;
62459;SDS011;48510;39.364;-9.378;2022-07-06T11:04:14;19.35;;;6.05;;
62459;SDS011;48510;39.364;-9.378;2022-07-06T11:08:20;23.90;;;7.03;;
62459;SDS011;48510;39.364;-9.378;2022-07-06T11:10:22;20.98;;;6.63;;
62459;SDS011;48510;39.364;-9.378;2022-07-06T11:12:23;16.33;;;5.93;;
62459;SDS011;48510;39.364;-9.378;2022-07-06T11:14:24;18.33;;;5.90;;
62459;SDS011;48510;39.364;-9.378;2022-07-06T11:16:25;23.58;;;7.53;;
62459;SDS011;48510;39.364;-9.378;2022-07-06T11:18:27;20.90;;;6.68;;
62459;SDS011;48510;39.364;-9.378;2022-07-06T11:20:28;18.38;;;6.00;;
62459;SDS011;48510;39.364;-9.378;2022-07-06T11:22:29;23.55;;;7.18;;
62459;SDS011;48510;39.364;-9.378;2022-07-06T11:24:30;20.80;;;6.70;;
62459;SDS011;48510;39.364;-9.378;2022-07-06T11:26:33;25.48;;;7.43;;
62459;SDS011;48510;39.364;-9.378;2022-07-06T11:28:36;25.38;;;7.20;;
62459;SDS011;48510;39.364;-9.378;2022-07-06T11:30:38;30.02;;;8.02;;
62459;SDS011;48510;39.364;-9.378;2022-07-06T11:32:39;21.88;;;7.20;;
62459;SDS011;48510;39.364;-9.378;2022-07-06T11:34:41;22.63;;;6.60;;
62459;SDS011;48510;39.364;-9.378;2022-07-06T11:36:43;20.98;;;6.85;;
62459;SDS011;48510;39.364;-9.378;2022-07-06T11:38:45;24.83;;;6.40;;
62459;SDS011;48510;39.364;-9.378;2022-07-06T11:40:46;23.33;;;6.20;;
62459;SDS011;48510;39.364;-9.378;2022-07-06T11:42:54;21.33;;;6.13;;
62459;SDS011;48510;39.364;-9.378;2022-07-06T11:44:55;28.92;;;6.82;;
62459;SDS011;48510;39.364;-9.378;2022-07-06T11:46:56;25.02;;;7.10;;
62459;SDS011;48510;39.364;-9.378;2022-07-06T11:49:06;23.17;;;6.38;;
62459;SDS011;48510;39.364;-9.378;2022-07-06T11:51:08;28.77;;;6.70;;
62459;SDS011;48510;39.364;-9.378;2022-07-06T11:53:09;25.80;;;6.75;;
62459;SDS011;48510;39.364;-9.378;2022-07-06T11:55:13;22.48;;;6.43;;
62459;SDS011;48510;39.364;-9.378;2022-07-06T11:57:15;22.80;;;6.57;;
62459;SDS011;48510;39.364;-9.378;2022-07-06T11:59:19;21.45;;;6.50;;
62459;SDS011;48510;39.364;-9.378;2022-07-06T12:01:22;23.33;;;5.70;;